sensor_id;sensor_type;location;lat;lon;timestamp;P1;durP1;ratioP1;P2;durP2;ratioP2
35074;SDS011;21260;34.984;32.490;2023-01-04T00:01:08;9.60;;;3.27;;
35074;SDS011;21260;34.984;32.490;2023-01-04T00:03:38;5.80;;;3.10;;
35074;SDS011;21260;34.984;32.490;2023-01-04T00:06:05;9.60;;;3.27;;
35074;SDS011;21260;34.984;32.490;2023-01-04T00:08:35;8.03;;;3.40;;
35074;SDS011;21260;34.984;32.490;2023-01-04T00:11:02;7.77;;;3.00;;
35074;SDS011;21260;34.984;32.490;2023-01-04T00:13:32;6.97;;;3.20;;
35074;SDS011;21260;34.984;32.490;2023-01-04T00:16:02;6.30;;;3.63;;
35074;SDS011;21260;34.984;32.490;2023-01-04T00:18:36;12.23;;;3.50;;
35074;SDS011;21260;34.984;32.490;2023-01-04T00:21:13;8.27;;;3.50;;
35074;SDS011;21260;34.984;32.490;2023-01-04T00:23:44;5.87;;;3.07;;
35074;SDS011;21260;34.984;32.490;2023-01-04T00:26:15;7.83;;;3.57;;
35074;SDS011;21260;34.984;32.490;2023-01-04T00:28:45;5.83;;;3.20;;
35074;SDS011;21260;34.984;32.490;2023-01-04T00:31:13;9.20;;;3.80;;
35074;SDS011;21260;34.984;32.490;2023-01-04T00:33:40;6.87;;;3.53;;
35074;SDS011;21260;34.984;32.490;2023-01-04T00:36:10;7.77;;;3.20;;
35074;SDS011;21260;34.984;32.490;2023-01-04T00:38:39;7.67;;;3.23;;
35074;SDS011;21260;34.984;32.490;2023-01-04T00:41:07;7.20;;;2.87;;
35074;SDS011;21260;34.984;32.490;2023-01-04T00:43:36;7.50;;;3.10;;
35074;SDS011;21260;34.984;32.490;2023-01-04T00:46:02;7.90;;;3.30;;
35074;SDS011;21260;34.984;32.490;2023-01-04T00:48:29;8.17;;;3.03;;
35074;SDS011;21260;34.984;32.490;2023-01-04T00:50:56;3.80;;;2.70;;
35074;SDS011;21260;34.984;32.490;2023-01-04T00:53:24;8.00;;;3.33;;
35074;SDS011;21260;34.984;32.490;2023-01-04T00:55:50;7.30;;;3.07;;
35074;SDS011;21260;34.984;32.490;2023-01-04T00:58:16;5.57;;;3.30;;
35074;SDS011;21260;34.984;32.490;2023-01-04T01:00:46;6.20;;;2.90;;
35074;SDS011;21260;34.984;32.490;2023-01-04T01:03:12;5.67;;;3.30;;
35074;SDS011;21260;34.984;32.490;2023-01-04T01:05:39;4.97;;;2.73;;
35074;SDS011;21260;34.984;32.490;2023-01-04T01:08:06;5.80;;;3.10;;
35074;SDS011;21260;34.984;32.490;2023-01-04T01:10:51;7.73;;;3.70;;
35074;SDS011;21260;34.984;32.490;2023-01-04T01:13:19;6.37;;;3.17;;
35074;SDS011;21260;34.984;32.490;2023-01-04T01:15:47;5.23;;;3.30;;
35074;SDS011;21260;34.984;32.490;2023-01-04T01:18:13;7.77;;;3.33;;
35074;SDS011;21260;34.984;32.490;2023-01-04T01:20:40;9.00;;;3.10;;
35074;SDS011;21260;34.984;32.490;2023-01-04T01:23:09;7.90;;;3.63;;
35074;SDS011;21260;34.984;32.490;2023-01-04T01:25:40;7.57;;;3.27;;
35074;SDS011;21260;34.984;32.490;2023-01-04T01:28:07;7.50;;;3.30;;
35074;SDS011;21260;34.984;32.490;2023-01-04T01:30:34;8.23;;;3.27;;
35074;SDS011;21260;34.984;32.490;2023-01-04T01:33:07;6.50;;;3.33;;
35074;SDS011;21260;34.984;32.490;2023-01-04T01:35:34;6.97;;;3.43;;
35074;SDS011;21260;34.984;32.490;2023-01-04T01:38:02;8.83;;;3.10;;
35074;SDS011;21260;34.984;32.490;2023-01-04T01:40:28;5.73;;;3.50;;
35074;SDS011;21260;34.984;32.490;2023-01-04T01:42:54;6.53;;;3.87;;
35074;SDS011;21260;34.984;32.490;2023-01-04T01:45:23;10.17;;;4.73;;
35074;SDS011;21260;34.984;32.490;2023-01-04T01:47:56;9.30;;;3.90;;
35074;SDS011;21260;34.984;32.490;2023-01-04T01:50:38;7.20;;;4.10;;
35074;SDS011;21260;34.984;32.490;2023-01-04T01:53:14;8.30;;;4.03;;
35074;SDS011;21260;34.984;32.490;2023-01-04T01:55:41;6.83;;;3.70;;
35074;SDS011;21260;34.984;32.490;2023-01-04T01:58:15;7.93;;;4.20;;
35074;SDS011;21260;34.984;32.490;2023-01-04T02:00:58;8.83;;;4.10;;
35074;SDS011;21260;34.984;32.490;2023-01-04T02:03:45;8.17;;;4.23;;
35074;SDS011;21260;34.984;32.490;2023-01-04T02:06:12;7.87;;;3.80;;
35074;SDS011;21260;34.984;32.490;2023-01-04T02:08:49;10.47;;;4.73;;
35074;SDS011;21260;34.984;32.490;2023-01-04T02:11:16;10.50;;;4.23;;
35074;SDS011;21260;34.984;32.490;2023-01-04T02:13:42;9.10;;;4.43;;
35074;SDS011;21260;34.984;32.490;2023-01-04T02:22:42;12.70;;;4.27;;
35074;SDS011;21260;34.984;32.490;2023-01-04T02:28:36;5.77;;;3.73;;
35074;SDS011;21260;34.984;32.490;2023-01-04T02:36:56;11.67;;;4.00;;
35074;SDS011;21260;34.984;32.490;2023-01-04T02:40:07;9.27;;;4.47;;
35074;SDS011;21260;34.984;32.490;2023-01-04T02:42:59;10.20;;;3.93;;
35074;SDS011;21260;34.984;32.490;2023-01-04T02:46:03;9.17;;;4.03;;
35074;SDS011;21260;34.984;32.490;2023-01-04T02:48:36;6.33;;;3.60;;
35074;SDS011;21260;34.984;32.490;2023-01-04T02:51:31;6.47;;;4.00;;
35074;SDS011;21260;34.984;32.490;2023-01-04T02:54:04;8.60;;;3.90;;
35074;SDS011;21260;34.984;32.490;2023-01-04T03:09:12;5.80;;;3.60;;
35074;SDS011;21260;34.984;32.490;2023-01-04T03:11:55;8.00;;;3.73;;
35074;SDS011;21260;34.984;32.490;2023-01-04T03:14:53;5.80;;;3.60;;
35074;SDS011;21260;34.984;32.490;2023-01-04T03:17:32;7.23;;;3.83;;
35074;SDS011;21260;34.984;32.490;2023-01-04T03:20:28;7.37;;;3.70;;
35074;SDS011;21260;34.984;32.490;2023-01-04T03:23:09;6.07;;;3.70;;
35074;SDS011;21260;34.984;32.490;2023-01-04T03:26:34;8.33;;;4.20;;
35074;SDS011;21260;34.984;32.490;2023-01-04T03:32:24;8.37;;;4.27;;
35074;SDS011;21260;34.984;32.490;2023-01-04T03:35:19;7.87;;;3.93;;
35074;SDS011;21260;34.984;32.490;2023-01-04T03:38:04;6.27;;;3.73;;
35074;SDS011;21260;34.984;32.490;2023-01-04T03:41:11;9.13;;;4.10;;
35074;SDS011;21260;34.984;32.490;2023-01-04T03:50:56;8.57;;;4.20;;
35074;SDS011;21260;34.984;32.490;2023-01-04T03:53:30;7.00;;;4.13;;
35074;SDS011;21260;34.984;32.490;2023-01-04T03:56:04;6.30;;;3.93;;
35074;SDS011;21260;34.984;32.490;2023-01-04T03:58:35;7.17;;;4.43;;
35074;SDS011;21260;34.984;32.490;2023-01-04T04:01:02;6.93;;;4.43;;
35074;SDS011;21260;34.984;32.490;2023-01-04T04:03:30;9.40;;;4.77;;
35074;SDS011;21260;34.984;32.490;2023-01-04T04:06:15;8.93;;;4.50;;
35074;SDS011;21260;34.984;32.490;2023-01-04T04:09:01;9.77;;;4.60;;
35074;SDS011;21260;34.984;32.490;2023-01-04T04:11:28;9.00;;;5.13;;
35074;SDS011;21260;34.984;32.490;2023-01-04T04:13:55;10.30;;;4.87;;
35074;SDS011;21260;34.984;32.490;2023-01-04T04:16:23;15.13;;;5.20;;
35074;SDS011;21260;34.984;32.490;2023-01-04T04:18:51;8.43;;;5.00;;
35074;SDS011;21260;34.984;32.490;2023-01-04T04:21:17;8.50;;;5.10;;
35074;SDS011;21260;34.984;32.490;2023-01-04T04:23:44;12.37;;;5.50;;
35074;SDS011;21260;34.984;32.490;2023-01-04T04:26:10;13.30;;;5.83;;
35074;SDS011;21260;34.984;32.490;2023-01-04T04:28:37;11.90;;;5.00;;
35074;SDS011;21260;34.984;32.490;2023-01-04T04:31:03;11.30;;;5.27;;
35074;SDS011;21260;34.984;32.490;2023-01-04T04:33:30;16.77;;;5.97;;
35074;SDS011;21260;34.984;32.490;2023-01-04T04:36:00;14.97;;;5.37;;
35074;SDS011;21260;34.984;32.490;2023-01-04T04:38:26;12.30;;;4.90;;
35074;SDS011;21260;34.984;32.490;2023-01-04T04:40:53;9.43;;;5.33;;
35074;SDS011;21260;34.984;32.490;2023-01-04T04:43:38;10.33;;;5.20;;
35074;SDS011;21260;34.984;32.490;2023-01-04T04:46:04;11.60;;;5.30;;
35074;SDS011;21260;34.984;32.490;2023-01-04T04:48:30;9.13;;;5.20;;
35074;SDS011;21260;34.984;32.490;2023-01-04T04:50:56;9.87;;;4.80;;
35074;SDS011;21260;34.984;32.490;2023-01-04T04:53:23;8.73;;;5.40;;
35074;SDS011;21260;34.984;32.490;2023-01-04T04:55:51;17.67;;;5.17;;
35074;SDS011;21260;34.984;32.490;2023-01-04T04:58:18;12.07;;;5.30;;
35074;SDS011;21260;34.984;32.490;2023-01-04T05:00:46;10.10;;;5.33;;
35074;SDS011;21260;34.984;32.490;2023-01-04T05:03:13;12.93;;;5.60;;
35074;SDS011;21260;34.984;32.490;2023-01-04T05:05:39;9.97;;;5.40;;
35074;SDS011;21260;34.984;32.490;2023-01-04T05:08:06;13.57;;;5.60;;
35074;SDS011;21260;34.984;32.490;2023-01-04T05:10:33;10.23;;;4.80;;
35074;SDS011;21260;34.984;32.490;2023-01-04T05:12:59;8.47;;;5.50;;
35074;SDS011;21260;34.984;32.490;2023-01-04T05:15:36;13.27;;;5.90;;
35074;SDS011;21260;34.984;32.490;2023-01-04T05:18:11;13.97;;;5.33;;
35074;SDS011;21260;34.984;32.490;2023-01-04T05:20:39;8.77;;;4.73;;
35074;SDS011;21260;34.984;32.490;2023-01-04T05:23:06;11.10;;;5.27;;
35074;SDS011;21260;34.984;32.490;2023-01-04T05:25:35;8.63;;;5.33;;
35074;SDS011;21260;34.984;32.490;2023-01-04T05:28:02;11.77;;;5.60;;
35074;SDS011;21260;34.984;32.490;2023-01-04T05:30:29;11.03;;;5.27;;
35074;SDS011;21260;34.984;32.490;2023-01-04T05:33:14;9.43;;;5.07;;
35074;SDS011;21260;34.984;32.490;2023-01-04T05:35:42;9.97;;;5.57;;
35074;SDS011;21260;34.984;32.490;2023-01-04T05:38:08;13.00;;;5.33;;
35074;SDS011;21260;34.984;32.490;2023-01-04T05:40:35;14.23;;;5.37;;
35074;SDS011;21260;34.984;32.490;2023-01-04T05:43:02;9.07;;;5.03;;
35074;SDS011;21260;34.984;32.490;2023-01-04T05:45:28;16.20;;;5.73;;
35074;SDS011;21260;34.984;32.490;2023-01-04T05:47:55;11.30;;;5.17;;
35074;SDS011;21260;34.984;32.490;2023-01-04T05:50:21;12.60;;;5.43;;
35074;SDS011;21260;34.984;32.490;2023-01-04T05:52:49;14.83;;;5.23;;
35074;SDS011;21260;34.984;32.490;2023-01-04T05:55:17;13.07;;;5.97;;
35074;SDS011;21260;34.984;32.490;2023-01-04T05:57:44;10.60;;;5.60;;
35074;SDS011;21260;34.984;32.490;2023-01-04T06:00:11;9.80;;;5.87;;
35074;SDS011;21260;34.984;32.490;2023-01-04T06:02:39;8.77;;;5.27;;
35074;SDS011;21260;34.984;32.490;2023-01-04T06:05:06;9.07;;;5.33;;
35074;SDS011;21260;34.984;32.490;2023-01-04T06:07:34;10.60;;;5.37;;
35074;SDS011;21260;34.984;32.490;2023-01-04T06:10:02;12.73;;;5.90;;
35074;SDS011;21260;34.984;32.490;2023-01-04T06:12:31;11.17;;;5.50;;
35074;SDS011;21260;34.984;32.490;2023-01-04T06:14:57;9.53;;;5.03;;
35074;SDS011;21260;34.984;32.490;2023-01-04T06:17:23;11.23;;;5.80;;
35074;SDS011;21260;34.984;32.490;2023-01-04T06:19:50;8.97;;;5.00;;
35074;SDS011;21260;34.984;32.490;2023-01-04T06:22:16;10.57;;;5.70;;
35074;SDS011;21260;34.984;32.490;2023-01-04T06:24:43;8.63;;;5.73;;
35074;SDS011;21260;34.984;32.490;2023-01-04T06:27:09;8.37;;;5.33;;
35074;SDS011;21260;34.984;32.490;2023-01-04T06:29:36;12.30;;;5.63;;
35074;SDS011;21260;34.984;32.490;2023-01-04T06:32:02;9.43;;;5.43;;
35074;SDS011;21260;34.984;32.490;2023-01-04T06:34:29;10.70;;;5.40;;
35074;SDS011;21260;34.984;32.490;2023-01-04T06:36:56;9.93;;;5.37;;
35074;SDS011;21260;34.984;32.490;2023-01-04T06:39:23;8.00;;;5.07;;
35074;SDS011;21260;34.984;32.490;2023-01-04T06:41:49;8.70;;;5.43;;
35074;SDS011;21260;34.984;32.490;2023-01-04T06:44:15;7.67;;;4.90;;
35074;SDS011;21260;34.984;32.490;2023-01-04T06:46:42;7.83;;;5.10;;
35074;SDS011;21260;34.984;32.490;2023-01-04T06:49:09;10.23;;;4.70;;
35074;SDS011;21260;34.984;32.490;2023-01-04T06:51:35;10.73;;;5.23;;
35074;SDS011;21260;34.984;32.490;2023-01-04T06:54:02;7.37;;;4.90;;
35074;SDS011;21260;34.984;32.490;2023-01-04T06:56:28;7.40;;;4.77;;
35074;SDS011;21260;34.984;32.490;2023-01-04T06:58:56;8.27;;;4.67;;
35074;SDS011;21260;34.984;32.490;2023-01-04T07:01:22;6.80;;;4.40;;
35074;SDS011;21260;34.984;32.490;2023-01-04T07:03:49;12.13;;;4.70;;
35074;SDS011;21260;34.984;32.490;2023-01-04T07:06:15;6.63;;;4.40;;
35074;SDS011;21260;34.984;32.490;2023-01-04T07:08:41;7.97;;;4.63;;
35074;SDS011;21260;34.984;32.490;2023-01-04T07:11:08;8.90;;;4.73;;
35074;SDS011;21260;34.984;32.490;2023-01-04T07:13:34;6.43;;;4.53;;
35074;SDS011;21260;34.984;32.490;2023-01-04T07:16:00;9.73;;;4.40;;
35074;SDS011;21260;34.984;32.490;2023-01-04T07:18:27;8.33;;;4.47;;
35074;SDS011;21260;34.984;32.490;2023-01-04T07:20:54;8.37;;;4.23;;
35074;SDS011;21260;34.984;32.490;2023-01-04T07:23:20;9.30;;;4.60;;
35074;SDS011;21260;34.984;32.490;2023-01-04T07:25:46;8.47;;;4.70;;
35074;SDS011;21260;34.984;32.490;2023-01-04T07:28:13;11.40;;;5.27;;
35074;SDS011;21260;34.984;32.490;2023-01-04T07:31:04;8.43;;;5.03;;
35074;SDS011;21260;34.984;32.490;2023-01-04T07:33:32;12.70;;;5.60;;
35074;SDS011;21260;34.984;32.490;2023-01-04T07:36:05;9.60;;;5.10;;
35074;SDS011;21260;34.984;32.490;2023-01-04T07:38:33;6.93;;;4.77;;
35074;SDS011;21260;34.984;32.490;2023-01-04T07:41:00;8.90;;;4.70;;
35074;SDS011;21260;34.984;32.490;2023-01-04T07:43:26;9.53;;;4.77;;
35074;SDS011;21260;34.984;32.490;2023-01-04T07:45:53;9.13;;;4.53;;
35074;SDS011;21260;34.984;32.490;2023-01-04T07:48:21;13.23;;;5.03;;
35074;SDS011;21260;34.984;32.490;2023-01-04T07:50:49;8.23;;;4.47;;
35074;SDS011;21260;34.984;32.490;2023-01-04T07:53:15;6.63;;;4.07;;
35074;SDS011;21260;34.984;32.490;2023-01-04T07:55:42;13.20;;;5.30;;
35074;SDS011;21260;34.984;32.490;2023-01-04T07:58:09;7.40;;;4.43;;
35074;SDS011;21260;34.984;32.490;2023-01-04T08:00:36;7.77;;;4.60;;
35074;SDS011;21260;34.984;32.490;2023-01-04T08:03:02;11.63;;;4.93;;
35074;SDS011;21260;34.984;32.490;2023-01-04T08:05:33;8.30;;;4.73;;
35074;SDS011;21260;34.984;32.490;2023-01-04T08:08:00;10.50;;;5.13;;
35074;SDS011;21260;34.984;32.490;2023-01-04T08:10:26;12.53;;;5.10;;
35074;SDS011;21260;34.984;32.490;2023-01-04T08:12:53;9.03;;;4.90;;
35074;SDS011;21260;34.984;32.490;2023-01-04T08:15:23;8.77;;;4.93;;
35074;SDS011;21260;34.984;32.490;2023-01-04T08:17:49;8.60;;;5.03;;
35074;SDS011;21260;34.984;32.490;2023-01-04T08:20:15;9.83;;;4.93;;
35074;SDS011;21260;34.984;32.490;2023-01-04T08:22:41;8.60;;;4.40;;
35074;SDS011;21260;34.984;32.490;2023-01-04T08:25:08;10.37;;;4.13;;
35074;SDS011;21260;34.984;32.490;2023-01-04T08:27:36;11.67;;;4.50;;
35074;SDS011;21260;34.984;32.490;2023-01-04T08:30:03;6.53;;;4.00;;
35074;SDS011;21260;34.984;32.490;2023-01-04T08:32:30;8.53;;;4.57;;
35074;SDS011;21260;34.984;32.490;2023-01-04T08:34:57;8.43;;;3.83;;
35074;SDS011;21260;34.984;32.490;2023-01-04T08:37:23;6.70;;;3.80;;
35074;SDS011;21260;34.984;32.490;2023-01-04T08:39:51;15.57;;;4.20;;
35074;SDS011;21260;34.984;32.490;2023-01-04T08:42:17;5.80;;;3.50;;
35074;SDS011;21260;34.984;32.490;2023-01-04T08:44:43;8.20;;;4.03;;
35074;SDS011;21260;34.984;32.490;2023-01-04T08:47:10;8.37;;;4.30;;
35074;SDS011;21260;34.984;32.490;2023-01-04T08:49:36;10.43;;;4.83;;
35074;SDS011;21260;34.984;32.490;2023-01-04T08:52:03;8.20;;;4.80;;
35074;SDS011;21260;34.984;32.490;2023-01-04T08:54:29;7.07;;;4.53;;
35074;SDS011;21260;34.984;32.490;2023-01-04T08:56:57;8.83;;;4.90;;
35074;SDS011;21260;34.984;32.490;2023-01-04T08:59:24;11.77;;;4.70;;
35074;SDS011;21260;34.984;32.490;2023-01-04T09:01:50;8.50;;;4.43;;
35074;SDS011;21260;34.984;32.490;2023-01-04T09:04:16;10.17;;;4.33;;
35074;SDS011;21260;34.984;32.490;2023-01-04T09:06:43;7.97;;;4.27;;
35074;SDS011;21260;34.984;32.490;2023-01-04T09:09:09;8.57;;;4.37;;
35074;SDS011;21260;34.984;32.490;2023-01-04T09:11:36;6.80;;;4.30;;
35074;SDS011;21260;34.984;32.490;2023-01-04T09:14:03;7.30;;;3.97;;
35074;SDS011;21260;34.984;32.490;2023-01-04T09:16:29;9.90;;;4.67;;
35074;SDS011;21260;34.984;32.490;2023-01-04T09:18:55;7.10;;;4.10;;
35074;SDS011;21260;34.984;32.490;2023-01-04T09:21:22;13.13;;;4.30;;
35074;SDS011;21260;34.984;32.490;2023-01-04T09:23:48;12.27;;;4.57;;
35074;SDS011;21260;34.984;32.490;2023-01-04T09:26:16;12.80;;;5.07;;
35074;SDS011;21260;34.984;32.490;2023-01-04T09:28:46;11.60;;;4.93;;
35074;SDS011;21260;34.984;32.490;2023-01-04T09:31:18;6.33;;;4.20;;
35074;SDS011;21260;34.984;32.490;2023-01-04T09:33:48;9.93;;;4.70;;
35074;SDS011;21260;34.984;32.490;2023-01-04T09:36:16;8.43;;;4.97;;
35074;SDS011;21260;34.984;32.490;2023-01-04T09:38:43;8.83;;;4.43;;
35074;SDS011;21260;34.984;32.490;2023-01-04T09:43:51;6.60;;;4.00;;
35074;SDS011;21260;34.984;32.490;2023-01-04T09:46:33;6.50;;;4.53;;
35074;SDS011;21260;34.984;32.490;2023-01-04T09:49:18;7.97;;;4.20;;
35074;SDS011;21260;34.984;32.490;2023-01-04T09:52:19;7.80;;;4.47;;
35074;SDS011;21260;34.984;32.490;2023-01-04T09:54:52;7.33;;;4.10;;
35074;SDS011;21260;34.984;32.490;2023-01-04T09:57:26;7.10;;;3.70;;
35074;SDS011;21260;34.984;32.490;2023-01-04T10:00:06;9.77;;;4.17;;
35074;SDS011;21260;34.984;32.490;2023-01-04T10:02:52;7.80;;;3.87;;
35074;SDS011;21260;34.984;32.490;2023-01-04T10:05:28;6.27;;;3.70;;
35074;SDS011;21260;34.984;32.490;2023-01-04T10:07:58;6.73;;;4.00;;
35074;SDS011;21260;34.984;32.490;2023-01-04T10:10:44;7.03;;;3.83;;
35074;SDS011;21260;34.984;32.490;2023-01-04T10:27:05;8.53;;;3.30;;
35074;SDS011;21260;34.984;32.490;2023-01-04T10:32:45;7.43;;;3.63;;
35074;SDS011;21260;34.984;32.490;2023-01-04T10:35:28;4.93;;;3.03;;
35074;SDS011;21260;34.984;32.490;2023-01-04T10:38:00;7.70;;;3.20;;
35074;SDS011;21260;34.984;32.490;2023-01-04T10:40:30;9.03;;;3.53;;
35074;SDS011;21260;34.984;32.490;2023-01-04T10:45:56;13.93;;;3.27;;
35074;SDS011;21260;34.984;32.490;2023-01-04T10:52:29;4.90;;;3.20;;
35074;SDS011;21260;34.984;32.490;2023-01-04T10:58:32;6.90;;;3.40;;
35074;SDS011;21260;34.984;32.490;2023-01-04T11:01:15;8.90;;;3.47;;
35074;SDS011;21260;34.984;32.490;2023-01-04T11:03:58;4.90;;;3.10;;
35074;SDS011;21260;34.984;32.490;2023-01-04T11:06:44;6.47;;;3.43;;
35074;SDS011;21260;34.984;32.490;2023-01-04T11:12:31;5.50;;;3.40;;
35074;SDS011;21260;34.984;32.490;2023-01-04T11:14:57;8.23;;;3.97;;
35074;SDS011;21260;34.984;32.490;2023-01-04T11:17:24;8.77;;;3.90;;
35074;SDS011;21260;34.984;32.490;2023-01-04T11:19:51;6.00;;;3.63;;
35074;SDS011;21260;34.984;32.490;2023-01-04T11:22:20;8.27;;;3.30;;
35074;SDS011;21260;34.984;32.490;2023-01-04T11:24:53;6.30;;;3.97;;
35074;SDS011;21260;34.984;32.490;2023-01-04T11:27:34;6.60;;;3.10;;
35074;SDS011;21260;34.984;32.490;2023-01-04T11:30:44;5.57;;;3.47;;
35074;SDS011;21260;34.984;32.490;2023-01-04T11:33:23;11.27;;;3.93;;
35074;SDS011;21260;34.984;32.490;2023-01-04T11:35:51;6.10;;;3.37;;
35074;SDS011;21260;34.984;32.490;2023-01-04T11:38:27;6.77;;;4.07;;
35074;SDS011;21260;34.984;32.490;2023-01-04T11:41:01;5.90;;;3.20;;
35074;SDS011;21260;34.984;32.490;2023-01-04T11:43:31;6.80;;;3.50;;
35074;SDS011;21260;34.984;32.490;2023-01-04T11:46:21;7.67;;;3.60;;
35074;SDS011;21260;34.984;32.490;2023-01-04T11:48:49;5.33;;;3.30;;
35074;SDS011;21260;34.984;32.490;2023-01-04T11:51:18;6.97;;;4.03;;
35074;SDS011;21260;34.984;32.490;2023-01-04T11:54:01;8.60;;;3.50;;
35074;SDS011;21260;34.984;32.490;2023-01-04T11:56:35;10.07;;;4.00;;
35074;SDS011;21260;34.984;32.490;2023-01-04T12:01:32;4.97;;;3.20;;
35074;SDS011;21260;34.984;32.490;2023-01-04T12:04:03;6.70;;;3.77;;
35074;SDS011;21260;34.984;32.490;2023-01-04T12:06:49;9.87;;;3.77;;
35074;SDS011;21260;34.984;32.490;2023-01-04T12:09:22;8.43;;;3.60;;
35074;SDS011;21260;34.984;32.490;2023-01-04T12:11:54;10.27;;;4.03;;
35074;SDS011;21260;34.984;32.490;2023-01-04T12:14:31;10.17;;;4.07;;
35074;SDS011;21260;34.984;32.490;2023-01-04T12:19:49;5.07;;;3.83;;
35074;SDS011;21260;34.984;32.490;2023-01-04T12:22:30;6.07;;;3.73;;
35074;SDS011;21260;34.984;32.490;2023-01-04T12:28:29;11.73;;;4.00;;
35074;SDS011;21260;34.984;32.490;2023-01-04T12:36:13;10.57;;;3.73;;
35074;SDS011;21260;34.984;32.490;2023-01-04T12:41:22;7.13;;;3.43;;
35074;SDS011;21260;34.984;32.490;2023-01-04T12:50:22;9.43;;;3.50;;
35074;SDS011;21260;34.984;32.490;2023-01-04T12:52:59;7.20;;;3.50;;
35074;SDS011;21260;34.984;32.490;2023-01-04T12:57:59;7.60;;;3.60;;
35074;SDS011;21260;34.984;32.490;2023-01-04T13:06:04;5.37;;;3.33;;
35074;SDS011;21260;34.984;32.490;2023-01-04T13:08:37;5.97;;;3.30;;
35074;SDS011;21260;34.984;32.490;2023-01-04T13:11:33;9.23;;;3.63;;
35074;SDS011;21260;34.984;32.490;2023-01-04T13:14:32;8.23;;;3.10;;
35074;SDS011;21260;34.984;32.490;2023-01-04T13:17:16;6.30;;;3.57;;
35074;SDS011;21260;34.984;32.490;2023-01-04T13:19:46;8.20;;;3.33;;
35074;SDS011;21260;34.984;32.490;2023-01-04T13:22:18;5.97;;;3.20;;
35074;SDS011;21260;34.984;32.490;2023-01-04T13:24:51;7.70;;;4.13;;
35074;SDS011;21260;34.984;32.490;2023-01-04T13:27:21;6.63;;;3.43;;
35074;SDS011;21260;34.984;32.490;2023-01-04T13:29:49;8.10;;;3.67;;
35074;SDS011;21260;34.984;32.490;2023-01-04T13:32:29;8.40;;;3.40;;
35074;SDS011;21260;34.984;32.490;2023-01-04T13:35:01;6.90;;;3.10;;
35074;SDS011;21260;34.984;32.490;2023-01-04T13:37:41;5.57;;;3.37;;
35074;SDS011;21260;34.984;32.490;2023-01-04T13:40:29;3.80;;;2.90;;
35074;SDS011;21260;34.984;32.490;2023-01-04T13:48:51;7.53;;;3.03;;
35074;SDS011;21260;34.984;32.490;2023-01-04T13:51:31;8.43;;;3.33;;
35074;SDS011;21260;34.984;32.490;2023-01-04T13:54:02;6.40;;;3.30;;
35074;SDS011;21260;34.984;32.490;2023-01-04T13:56:32;6.67;;;3.67;;
35074;SDS011;21260;34.984;32.490;2023-01-04T13:58:59;5.63;;;3.00;;
35074;SDS011;21260;34.984;32.490;2023-01-04T14:01:43;10.73;;;3.60;;
35074;SDS011;21260;34.984;32.490;2023-01-04T14:04:24;6.67;;;3.37;;
35074;SDS011;21260;34.984;32.490;2023-01-04T14:06:54;6.07;;;2.97;;
35074;SDS011;21260;34.984;32.490;2023-01-04T14:09:24;7.03;;;3.30;;
35074;SDS011;21260;34.984;32.490;2023-01-04T14:11:57;5.27;;;3.50;;
35074;SDS011;21260;34.984;32.490;2023-01-04T14:14:50;9.77;;;3.73;;
35074;SDS011;21260;34.984;32.490;2023-01-04T14:22:52;6.37;;;3.47;;
35074;SDS011;21260;34.984;32.490;2023-01-04T14:30:49;5.87;;;3.33;;
35074;SDS011;21260;34.984;32.490;2023-01-04T14:46:38;6.03;;;4.07;;
35074;SDS011;21260;34.984;32.490;2023-01-04T14:49:07;5.27;;;3.40;;
35074;SDS011;21260;34.984;32.490;2023-01-04T14:54:29;11.23;;;3.57;;
35074;SDS011;21260;34.984;32.490;2023-01-04T14:56:57;6.97;;;3.60;;
35074;SDS011;21260;34.984;32.490;2023-01-04T14:59:24;5.67;;;3.83;;
35074;SDS011;21260;34.984;32.490;2023-01-04T15:01:51;7.40;;;3.40;;
35074;SDS011;21260;34.984;32.490;2023-01-04T15:04:20;6.03;;;3.47;;
35074;SDS011;21260;34.984;32.490;2023-01-04T15:06:54;7.10;;;3.43;;
35074;SDS011;21260;34.984;32.490;2023-01-04T15:09:23;5.57;;;3.53;;
35074;SDS011;21260;34.984;32.490;2023-01-04T15:11:51;10.10;;;3.47;;
35074;SDS011;21260;34.984;32.490;2023-01-04T15:14:18;10.13;;;3.80;;
35074;SDS011;21260;34.984;32.490;2023-01-04T15:16:45;4.27;;;3.10;;
35074;SDS011;21260;34.984;32.490;2023-01-04T15:19:11;5.67;;;3.50;;
35074;SDS011;21260;34.984;32.490;2023-01-04T15:21:38;8.17;;;3.70;;
35074;SDS011;21260;34.984;32.490;2023-01-04T15:24:04;7.40;;;3.30;;
35074;SDS011;21260;34.984;32.490;2023-01-04T15:26:31;6.30;;;3.57;;
35074;SDS011;21260;34.984;32.490;2023-01-04T15:28:58;4.83;;;3.33;;
35074;SDS011;21260;34.984;32.490;2023-01-04T15:31:24;7.10;;;3.33;;
35074;SDS011;21260;34.984;32.490;2023-01-04T15:33:50;5.00;;;3.50;;
35074;SDS011;21260;34.984;32.490;2023-01-04T15:36:17;6.80;;;3.60;;
35074;SDS011;21260;34.984;32.490;2023-01-04T15:38:44;5.70;;;3.33;;
35074;SDS011;21260;34.984;32.490;2023-01-04T15:41:11;5.63;;;3.60;;
35074;SDS011;21260;34.984;32.490;2023-01-04T15:44:01;4.20;;;3.53;;
35074;SDS011;21260;34.984;32.490;2023-01-04T15:46:34;6.47;;;3.60;;
35074;SDS011;21260;34.984;32.490;2023-01-04T15:49:01;3.90;;;3.33;;
35074;SDS011;21260;34.984;32.490;2023-01-04T15:51:27;6.27;;;3.87;;
35074;SDS011;21260;34.984;32.490;2023-01-04T15:53:53;5.20;;;3.53;;
35074;SDS011;21260;34.984;32.490;2023-01-04T15:56:20;6.93;;;4.00;;
35074;SDS011;21260;34.984;32.490;2023-01-04T15:58:50;7.00;;;4.73;;
35074;SDS011;21260;34.984;32.490;2023-01-04T16:01:20;10.50;;;5.87;;
35074;SDS011;21260;34.984;32.490;2023-01-04T16:03:47;11.73;;;6.50;;
35074;SDS011;21260;34.984;32.490;2023-01-04T16:06:14;8.93;;;5.13;;
35074;SDS011;21260;34.984;32.490;2023-01-04T16:08:42;6.30;;;4.97;;
35074;SDS011;21260;34.984;32.490;2023-01-04T16:13:44;7.23;;;4.43;;
35074;SDS011;21260;34.984;32.490;2023-01-04T16:16:13;5.93;;;3.90;;
35074;SDS011;21260;34.984;32.490;2023-01-04T16:18:50;6.90;;;4.33;;
35074;SDS011;21260;34.984;32.490;2023-01-04T16:21:20;4.67;;;3.73;;
35074;SDS011;21260;34.984;32.490;2023-01-04T16:23:54;6.47;;;4.00;;
35074;SDS011;21260;34.984;32.490;2023-01-04T16:26:23;6.63;;;4.13;;
35074;SDS011;21260;34.984;32.490;2023-01-04T16:28:50;5.60;;;4.03;;
35074;SDS011;21260;34.984;32.490;2023-01-04T16:31:19;6.83;;;4.07;;
35074;SDS011;21260;34.984;32.490;2023-01-04T16:33:50;5.50;;;3.70;;
35074;SDS011;21260;34.984;32.490;2023-01-04T16:36:17;5.93;;;4.13;;
35074;SDS011;21260;34.984;32.490;2023-01-04T16:38:46;5.13;;;3.77;;
35074;SDS011;21260;34.984;32.490;2023-01-04T16:41:13;5.70;;;4.00;;
35074;SDS011;21260;34.984;32.490;2023-01-04T16:43:46;5.00;;;3.27;;
35074;SDS011;21260;34.984;32.490;2023-01-04T16:49:04;5.53;;;4.20;;
35074;SDS011;21260;34.984;32.490;2023-01-04T16:51:35;6.43;;;3.90;;
35074;SDS011;21260;34.984;32.490;2023-01-04T16:54:05;5.17;;;3.70;;
35074;SDS011;21260;34.984;32.490;2023-01-04T16:56:37;6.63;;;3.87;;
35074;SDS011;21260;34.984;32.490;2023-01-04T16:59:05;4.77;;;3.73;;
35074;SDS011;21260;34.984;32.490;2023-01-04T17:01:34;5.27;;;3.97;;
35074;SDS011;21260;34.984;32.490;2023-01-04T17:04:03;6.47;;;4.07;;
35074;SDS011;21260;34.984;32.490;2023-01-04T17:06:35;5.80;;;4.00;;
35074;SDS011;21260;34.984;32.490;2023-01-04T17:09:14;6.97;;;4.17;;
35074;SDS011;21260;34.984;32.490;2023-01-04T17:11:44;5.60;;;3.80;;
35074;SDS011;21260;34.984;32.490;2023-01-04T17:14:21;5.53;;;4.23;;
35074;SDS011;21260;34.984;32.490;2023-01-04T17:16:50;6.80;;;4.43;;